sensor_id;sensor_type;location;lat;lon;timestamp;P1;durP1;ratioP1;P2;durP2;ratioP2
68250;SDS011;55066;51.560;4.642;2023-07-09T00:02:12;18.20;;;6.50;;
68250;SDS011;55066;51.560;4.642;2023-07-09T00:04:39;17.00;;;6.80;;
68250;SDS011;55066;51.560;4.642;2023-07-09T00:07:04;22.07;;;7.20;;
68250;SDS011;55066;51.560;4.642;2023-07-09T00:09:30;19.35;;;6.88;;
68250;SDS011;55066;51.560;4.642;2023-07-09T00:11:57;23.05;;;7.82;;
68250;SDS011;55066;51.560;4.642;2023-07-09T00:14:23;13.27;;;6.63;;
68250;SDS011;55066;51.560;4.642;2023-07-09T00:16:48;17.80;;;7.60;;
68250;SDS011;55066;51.560;4.642;2023-07-09T00:19:16;12.40;;;6.18;;
68250;SDS011;55066;51.560;4.642;2023-07-09T00:21:44;15.17;;;6.53;;
68250;SDS011;55066;51.560;4.642;2023-07-09T00:24:11;17.58;;;7.63;;
68250;SDS011;55066;51.560;4.642;2023-07-09T00:26:37;13.88;;;7.82;;
68250;SDS011;55066;51.560;4.642;2023-07-09T00:29:03;15.57;;;7.00;;
68250;SDS011;55066;51.560;4.642;2023-07-09T00:31:29;15.45;;;7.45;;
68250;SDS011;55066;51.560;4.642;2023-07-09T00:33:55;14.80;;;6.90;;
68250;SDS011;55066;51.560;4.642;2023-07-09T00:36:27;16.25;;;6.20;;
68250;SDS011;55066;51.560;4.642;2023-07-09T00:38:56;16.97;;;7.80;;
68250;SDS011;55066;51.560;4.642;2023-07-09T00:41:24;13.75;;;7.50;;
68250;SDS011;55066;51.560;4.642;2023-07-09T00:43:51;18.75;;;7.68;;
68250;SDS011;55066;51.560;4.642;2023-07-09T00:48:51;15.25;;;7.03;;
68250;SDS011;55066;51.560;4.642;2023-07-09T00:51:23;17.03;;;7.03;;
68250;SDS011;55066;51.560;4.642;2023-07-09T00:53:51;11.43;;;5.47;;
68250;SDS011;55066;51.560;4.642;2023-07-09T00:56:24;15.18;;;7.10;;
68250;SDS011;55066;51.560;4.642;2023-07-09T00:58:59;18.08;;;8.98;;
68250;SDS011;55066;51.560;4.642;2023-07-09T01:01:29;18.08;;;9.05;;
68250;SDS011;55066;51.560;4.642;2023-07-09T01:03:56;16.27;;;7.40;;
68250;SDS011;55066;51.560;4.642;2023-07-09T01:06:27;20.20;;;10.05;;
68250;SDS011;55066;51.560;4.642;2023-07-09T01:09:15;19.08;;;9.25;;
68250;SDS011;55066;51.560;4.642;2023-07-09T01:11:42;15.82;;;8.77;;
68250;SDS011;55066;51.560;4.642;2023-07-09T01:14:10;17.75;;;7.93;;
68250;SDS011;55066;51.560;4.642;2023-07-09T01:16:39;18.20;;;8.87;;
68250;SDS011;55066;51.560;4.642;2023-07-09T01:19:08;15.05;;;9.18;;
68250;SDS011;55066;51.560;4.642;2023-07-09T01:21:34;19.20;;;8.88;;
68250;SDS011;55066;51.560;4.642;2023-07-09T01:24:10;19.27;;;9.40;;
68250;SDS011;55066;51.560;4.642;2023-07-09T01:26:40;19.38;;;10.23;;
68250;SDS011;55066;51.560;4.642;2023-07-09T01:29:08;15.57;;;9.60;;
68250;SDS011;55066;51.560;4.642;2023-07-09T01:31:33;15.50;;;8.80;;
68250;SDS011;55066;51.560;4.642;2023-07-09T01:34:02;17.02;;;10.35;;
68250;SDS011;55066;51.560;4.642;2023-07-09T01:36:30;18.77;;;10.73;;
68250;SDS011;55066;51.560;4.642;2023-07-09T01:38:56;20.93;;;10.47;;
68250;SDS011;55066;51.560;4.642;2023-07-09T01:41:21;18.67;;;11.20;;
68250;SDS011;55066;51.560;4.642;2023-07-09T01:43:47;22.90;;;12.10;;
68250;SDS011;55066;51.560;4.642;2023-07-09T01:46:14;21.17;;;11.80;;
68250;SDS011;55066;51.560;4.642;2023-07-09T01:48:39;22.80;;;11.87;;
68250;SDS011;55066;51.560;4.642;2023-07-09T01:51:10;17.70;;;10.18;;
68250;SDS011;55066;51.560;4.642;2023-07-09T01:53:37;16.13;;;8.85;;
68250;SDS011;55066;51.560;4.642;2023-07-09T01:56:06;14.23;;;8.07;;
68250;SDS011;55066;51.560;4.642;2023-07-09T01:58:33;18.27;;;10.98;;
68250;SDS011;55066;51.560;4.642;2023-07-09T02:00:59;18.98;;;10.32;;
68250;SDS011;55066;51.560;4.642;2023-07-09T02:03:25;16.40;;;11.00;;
68250;SDS011;55066;51.560;4.642;2023-07-09T02:05:54;16.73;;;10.40;;
68250;SDS011;55066;51.560;4.642;2023-07-09T02:08:21;17.02;;;9.88;;
68250;SDS011;55066;51.560;4.642;2023-07-09T02:10:49;16.67;;;9.37;;
68250;SDS011;55066;51.560;4.642;2023-07-09T02:13:16;15.57;;;9.03;;
68250;SDS011;55066;51.560;4.642;2023-07-09T02:15:44;23.20;;;11.85;;
68250;SDS011;55066;51.560;4.642;2023-07-09T02:18:11;17.80;;;10.60;;
68250;SDS011;55066;51.560;4.642;2023-07-09T02:20:37;19.90;;;11.65;;
68250;SDS011;55066;51.560;4.642;2023-07-09T02:23:03;19.48;;;11.73;;
68250;SDS011;55066;51.560;4.642;2023-07-09T02:25:31;22.37;;;11.57;;
68250;SDS011;55066;51.560;4.642;2023-07-09T02:27:56;23.92;;;11.60;;
68250;SDS011;55066;51.560;4.642;2023-07-09T02:30:22;16.60;;;9.73;;
68250;SDS011;55066;51.560;4.642;2023-07-09T02:32:49;18.63;;;11.82;;
68250;SDS011;55066;51.560;4.642;2023-07-09T02:35:16;21.33;;;11.88;;
68250;SDS011;55066;51.560;4.642;2023-07-09T02:37:41;17.47;;;11.03;;
68250;SDS011;55066;51.560;4.642;2023-07-09T02:40:07;18.33;;;10.95;;
68250;SDS011;55066;51.560;4.642;2023-07-09T02:42:34;20.00;;;11.10;;
68250;SDS011;55066;51.560;4.642;2023-07-09T02:45:00;18.63;;;10.55;;
68250;SDS011;55066;51.560;4.642;2023-07-09T02:47:29;17.73;;;11.70;;
68250;SDS011;55066;51.560;4.642;2023-07-09T02:49:57;18.07;;;10.63;;
68250;SDS011;55066;51.560;4.642;2023-07-09T02:52:22;15.35;;;10.02;;
68250;SDS011;55066;51.560;4.642;2023-07-09T02:54:48;21.30;;;10.90;;
68250;SDS011;55066;51.560;4.642;2023-07-09T02:57:13;16.60;;;11.57;;
68250;SDS011;55066;51.560;4.642;2023-07-09T02:59:40;16.27;;;11.07;;
68250;SDS011;55066;51.560;4.642;2023-07-09T03:02:06;17.57;;;10.37;;
68250;SDS011;55066;51.560;4.642;2023-07-09T03:04:31;14.48;;;8.02;;
68250;SDS011;55066;51.560;4.642;2023-07-09T03:06:57;21.73;;;11.47;;
68250;SDS011;55066;51.560;4.642;2023-07-09T03:09:23;14.45;;;9.25;;
68250;SDS011;55066;51.560;4.642;2023-07-09T03:11:48;19.67;;;10.57;;
68250;SDS011;55066;51.560;4.642;2023-07-09T03:14:14;13.60;;;8.97;;
68250;SDS011;55066;51.560;4.642;2023-07-09T03:16:40;14.02;;;9.15;;
68250;SDS011;55066;51.560;4.642;2023-07-09T03:19:05;14.73;;;9.03;;
68250;SDS011;55066;51.560;4.642;2023-07-09T03:21:31;14.82;;;8.88;;
68250;SDS011;55066;51.560;4.642;2023-07-09T03:23:57;15.77;;;10.03;;
68250;SDS011;55066;51.560;4.642;2023-07-09T03:26:23;17.08;;;10.00;;
68250;SDS011;55066;51.560;4.642;2023-07-09T03:28:50;20.48;;;10.85;;
68250;SDS011;55066;51.560;4.642;2023-07-09T03:31:16;16.77;;;10.40;;
68250;SDS011;55066;51.560;4.642;2023-07-09T03:33:41;17.85;;;10.20;;
68250;SDS011;55066;51.560;4.642;2023-07-09T03:36:07;15.03;;;9.93;;
68250;SDS011;55066;51.560;4.642;2023-07-09T03:38:33;16.00;;;10.38;;
68250;SDS011;55066;51.560;4.642;2023-07-09T03:40:58;17.80;;;10.33;;
68250;SDS011;55066;51.560;4.642;2023-07-09T03:43:25;15.95;;;10.18;;
68250;SDS011;55066;51.560;4.642;2023-07-09T03:45:51;16.13;;;10.60;;
68250;SDS011;55066;51.560;4.642;2023-07-09T03:48:17;16.80;;;10.77;;
68250;SDS011;55066;51.560;4.642;2023-07-09T03:50:45;17.98;;;10.63;;
68250;SDS011;55066;51.560;4.642;2023-07-09T03:53:11;19.27;;;10.83;;
68250;SDS011;55066;51.560;4.642;2023-07-09T03:55:37;20.23;;;10.90;;
68250;SDS011;55066;51.560;4.642;2023-07-09T03:58:03;16.98;;;11.30;;
68250;SDS011;55066;51.560;4.642;2023-07-09T04:00:29;17.10;;;10.73;;
68250;SDS011;55066;51.560;4.642;2023-07-09T04:02:55;22.67;;;11.68;;
68250;SDS011;55066;51.560;4.642;2023-07-09T04:05:25;18.20;;;10.95;;
68250;SDS011;55066;51.560;4.642;2023-07-09T04:07:51;19.10;;;10.27;;
68250;SDS011;55066;51.560;4.642;2023-07-09T04:10:18;17.50;;;10.85;;
68250;SDS011;55066;51.560;4.642;2023-07-09T04:12:44;16.73;;;9.20;;
68250;SDS011;55066;51.560;4.642;2023-07-09T04:15:10;18.45;;;10.80;;
68250;SDS011;55066;51.560;4.642;2023-07-09T04:17:38;17.83;;;9.87;;
68250;SDS011;55066;51.560;4.642;2023-07-09T04:20:03;15.60;;;8.23;;
68250;SDS011;55066;51.560;4.642;2023-07-09T04:22:32;13.85;;;9.20;;
68250;SDS011;55066;51.560;4.642;2023-07-09T04:24:59;14.83;;;8.93;;
68250;SDS011;55066;51.560;4.642;2023-07-09T04:27:24;16.30;;;10.15;;
68250;SDS011;55066;51.560;4.642;2023-07-09T04:29:53;16.20;;;10.05;;
68250;SDS011;55066;51.560;4.642;2023-07-09T04:32:19;17.73;;;10.40;;
68250;SDS011;55066;51.560;4.642;2023-07-09T04:34:45;14.05;;;9.13;;
68250;SDS011;55066;51.560;4.642;2023-07-09T04:37:10;18.37;;;10.10;;
68250;SDS011;55066;51.560;4.642;2023-07-09T04:39:42;15.95;;;10.10;;
68250;SDS011;55066;51.560;4.642;2023-07-09T04:42:11;15.90;;;10.35;;
68250;SDS011;55066;51.560;4.642;2023-07-09T04:44:40;17.92;;;9.98;;
68250;SDS011;55066;51.560;4.642;2023-07-09T04:47:06;16.80;;;10.17;;
68250;SDS011;55066;51.560;4.642;2023-07-09T04:49:32;18.63;;;9.75;;
68250;SDS011;55066;51.560;4.642;2023-07-09T04:51:57;16.67;;;10.17;;
68250;SDS011;55066;51.560;4.642;2023-07-09T04:54:24;16.42;;;9.90;;
68250;SDS011;55066;51.560;4.642;2023-07-09T04:56:50;15.35;;;10.05;;
68250;SDS011;55066;51.560;4.642;2023-07-09T04:59:15;15.20;;;10.00;;
68250;SDS011;55066;51.560;4.642;2023-07-09T05:01:41;17.67;;;10.57;;
68250;SDS011;55066;51.560;4.642;2023-07-09T05:04:06;20.88;;;11.00;;
68250;SDS011;55066;51.560;4.642;2023-07-09T05:06:32;15.77;;;10.40;;
68250;SDS011;55066;51.560;4.642;2023-07-09T05:08:58;18.92;;;10.20;;
68250;SDS011;55066;51.560;4.642;2023-07-09T05:11:23;20.83;;;10.97;;
68250;SDS011;55066;51.560;4.642;2023-07-09T05:13:49;19.47;;;11.10;;
68250;SDS011;55066;51.560;4.642;2023-07-09T05:16:14;18.60;;;12.50;;
68250;SDS011;55066;51.560;4.642;2023-07-09T05:18:40;21.70;;;11.57;;
68250;SDS011;55066;51.560;4.642;2023-07-09T05:21:05;19.60;;;12.10;;
68250;SDS011;55066;51.560;4.642;2023-07-09T05:23:31;19.00;;;10.87;;
68250;SDS011;55066;51.560;4.642;2023-07-09T05:25:58;20.00;;;11.55;;
68250;SDS011;55066;51.560;4.642;2023-07-09T05:28:25;19.02;;;10.90;;
68250;SDS011;55066;51.560;4.642;2023-07-09T05:30:50;17.85;;;11.10;;
68250;SDS011;55066;51.560;4.642;2023-07-09T05:33:16;17.27;;;10.80;;
68250;SDS011;55066;51.560;4.642;2023-07-09T05:35:43;16.75;;;9.88;;
68250;SDS011;55066;51.560;4.642;2023-07-09T05:38:11;24.63;;;12.07;;
68250;SDS011;55066;51.560;4.642;2023-07-09T05:40:38;20.53;;;11.77;;
68250;SDS011;55066;51.560;4.642;2023-07-09T05:43:04;20.23;;;12.20;;
68250;SDS011;55066;51.560;4.642;2023-07-09T05:45:30;20.17;;;12.03;;
68250;SDS011;55066;51.560;4.642;2023-07-09T05:47:57;20.88;;;11.80;;
68250;SDS011;55066;51.560;4.642;2023-07-09T05:50:23;20.55;;;11.50;;
68250;SDS011;55066;51.560;4.642;2023-07-09T05:52:48;23.20;;;11.87;;
68250;SDS011;55066;51.560;4.642;2023-07-09T05:55:14;20.90;;;12.00;;
68250;SDS011;55066;51.560;4.642;2023-07-09T05:57:39;20.63;;;12.02;;
68250;SDS011;55066;51.560;4.642;2023-07-09T06:00:05;21.73;;;11.70;;
68250;SDS011;55066;51.560;4.642;2023-07-09T06:02:38;17.98;;;11.73;;
68250;SDS011;55066;51.560;4.642;2023-07-09T06:05:04;18.10;;;11.77;;
68250;SDS011;55066;51.560;4.642;2023-07-09T06:07:30;22.27;;;14.07;;
68250;SDS011;55066;51.560;4.642;2023-07-09T06:09:56;20.97;;;13.30;;
68250;SDS011;55066;51.560;4.642;2023-07-09T06:12:22;21.08;;;13.93;;
68250;SDS011;55066;51.560;4.642;2023-07-09T06:14:48;21.40;;;13.07;;
68250;SDS011;55066;51.560;4.642;2023-07-09T06:17:13;21.63;;;13.00;;
68250;SDS011;55066;51.560;4.642;2023-07-09T06:19:39;22.70;;;13.37;;
68250;SDS011;55066;51.560;4.642;2023-07-09T06:22:05;18.50;;;13.00;;
68250;SDS011;55066;51.560;4.642;2023-07-09T06:24:30;24.33;;;14.67;;
68250;SDS011;55066;51.560;4.642;2023-07-09T06:26:56;23.45;;;16.25;;
68250;SDS011;55066;51.560;4.642;2023-07-09T06:29:22;34.00;;;14.70;;
68250;SDS011;55066;51.560;4.642;2023-07-09T06:31:47;27.85;;;13.30;;
68250;SDS011;55066;51.560;4.642;2023-07-09T06:34:13;22.37;;;12.50;;
68250;SDS011;55066;51.560;4.642;2023-07-09T06:36:38;24.83;;;12.73;;
68250;SDS011;55066;51.560;4.642;2023-07-09T06:39:04;20.97;;;12.27;;
68250;SDS011;55066;51.560;4.642;2023-07-09T06:41:30;24.13;;;12.63;;
68250;SDS011;55066;51.560;4.642;2023-07-09T06:43:57;24.85;;;12.15;;
68250;SDS011;55066;51.560;4.642;2023-07-09T06:46:23;23.83;;;12.07;;
68250;SDS011;55066;51.560;4.642;2023-07-09T06:48:49;20.93;;;12.67;;
68250;SDS011;55066;51.560;4.642;2023-07-09T06:51:14;21.73;;;13.17;;
68250;SDS011;55066;51.560;4.642;2023-07-09T06:53:39;20.90;;;12.77;;
68250;SDS011;55066;51.560;4.642;2023-07-09T06:56:07;20.17;;;12.52;;
68250;SDS011;55066;51.560;4.642;2023-07-09T06:58:34;20.55;;;12.32;;
68250;SDS011;55066;51.560;4.642;2023-07-09T07:01:02;21.05;;;12.27;;
68250;SDS011;55066;51.560;4.642;2023-07-09T07:03:29;24.10;;;11.90;;
68250;SDS011;55066;51.560;4.642;2023-07-09T07:05:55;21.48;;;11.15;;
68250;SDS011;55066;51.560;4.642;2023-07-09T07:08:21;20.90;;;12.25;;
68250;SDS011;55066;51.560;4.642;2023-07-09T07:10:48;17.33;;;11.18;;
68250;SDS011;55066;51.560;4.642;2023-07-09T07:13:14;20.50;;;11.93;;
68250;SDS011;55066;51.560;4.642;2023-07-09T07:15:40;23.10;;;12.13;;
68250;SDS011;55066;51.560;4.642;2023-07-09T07:18:06;17.33;;;11.33;;
68250;SDS011;55066;51.560;4.642;2023-07-09T07:20:32;17.93;;;10.63;;
68250;SDS011;55066;51.560;4.642;2023-07-09T07:22:58;19.67;;;11.35;;
68250;SDS011;55066;51.560;4.642;2023-07-09T07:25:24;19.40;;;11.55;;
68250;SDS011;55066;51.560;4.642;2023-07-09T07:27:50;21.17;;;12.07;;
68250;SDS011;55066;51.560;4.642;2023-07-09T07:30:16;18.63;;;12.07;;
68250;SDS011;55066;51.560;4.642;2023-07-09T07:32:43;19.52;;;11.55;;
68250;SDS011;55066;51.560;4.642;2023-07-09T07:35:09;24.73;;;12.60;;
68250;SDS011;55066;51.560;4.642;2023-07-09T07:37:35;23.35;;;13.65;;
68250;SDS011;55066;51.560;4.642;2023-07-09T07:40:02;21.55;;;13.30;;
68250;SDS011;55066;51.560;4.642;2023-07-09T07:42:30;22.03;;;13.33;;
68250;SDS011;55066;51.560;4.642;2023-07-09T07:44:55;23.77;;;14.00;;
68250;SDS011;55066;51.560;4.642;2023-07-09T07:47:21;19.10;;;12.60;;
68250;SDS011;55066;51.560;4.642;2023-07-09T07:49:46;21.58;;;13.18;;
68250;SDS011;55066;51.560;4.642;2023-07-09T07:52:12;26.33;;;13.00;;
68250;SDS011;55066;51.560;4.642;2023-07-09T07:54:38;22.65;;;12.18;;
68250;SDS011;55066;51.560;4.642;2023-07-09T07:57:04;19.30;;;12.13;;
68250;SDS011;55066;51.560;4.642;2023-07-09T07:59:29;26.48;;;13.52;;
68250;SDS011;55066;51.560;4.642;2023-07-09T08:01:57;23.00;;;12.02;;
68250;SDS011;55066;51.560;4.642;2023-07-09T08:04:23;21.30;;;13.00;;
68250;SDS011;55066;51.560;4.642;2023-07-09T08:06:49;22.40;;;13.40;;
68250;SDS011;55066;51.560;4.642;2023-07-09T08:09:15;19.10;;;12.35;;
68250;SDS011;55066;51.560;4.642;2023-07-09T08:11:41;25.00;;;14.10;;
68250;SDS011;55066;51.560;4.642;2023-07-09T08:14:07;25.33;;;13.10;;
68250;SDS011;55066;51.560;4.642;2023-07-09T08:16:32;21.30;;;13.07;;
68250;SDS011;55066;51.560;4.642;2023-07-09T08:19:02;20.58;;;12.63;;
68250;SDS011;55066;51.560;4.642;2023-07-09T08:21:27;21.33;;;12.53;;
68250;SDS011;55066;51.560;4.642;2023-07-09T08:23:55;25.25;;;13.95;;
68250;SDS011;55066;51.560;4.642;2023-07-09T08:26:21;19.60;;;12.93;;
68250;SDS011;55066;51.560;4.642;2023-07-09T08:28:48;19.05;;;11.95;;
68250;SDS011;55066;51.560;4.642;2023-07-09T08:31:14;21.57;;;13.07;;
68250;SDS011;55066;51.560;4.642;2023-07-09T08:33:39;18.20;;;12.00;;
68250;SDS011;55066;51.560;4.642;2023-07-09T08:36:05;22.77;;;11.90;;
68250;SDS011;55066;51.560;4.642;2023-07-09T08:38:30;18.07;;;11.00;;
68250;SDS011;55066;51.560;4.642;2023-07-09T08:40:57;16.77;;;10.55;;
68250;SDS011;55066;51.560;4.642;2023-07-09T08:44:07;20.35;;;12.18;;
68250;SDS011;55066;51.560;4.642;2023-07-09T08:49:21;19.55;;;13.15;;
68250;SDS011;55066;51.560;4.642;2023-07-09T08:51:59;20.77;;;12.65;;
68250;SDS011;55066;51.560;4.642;2023-07-09T08:54:27;19.10;;;11.80;;
68250;SDS011;55066;51.560;4.642;2023-07-09T08:56:58;20.15;;;12.25;;
68250;SDS011;55066;51.560;4.642;2023-07-09T08:59:27;16.40;;;11.53;;
68250;SDS011;55066;51.560;4.642;2023-07-09T09:01:58;18.27;;;11.20;;
68250;SDS011;55066;51.560;4.642;2023-07-09T09:04:31;19.38;;;11.40;;
68250;SDS011;55066;51.560;4.642;2023-07-09T09:09:38;18.27;;;10.70;;
68250;SDS011;55066;51.560;4.642;2023-07-09T09:12:13;17.83;;;11.43;;
68250;SDS011;55066;51.560;4.642;2023-07-09T09:14:43;17.40;;;10.65;;
68250;SDS011;55066;51.560;4.642;2023-07-09T09:17:23;22.50;;;12.02;;
68250;SDS011;55066;51.560;4.642;2023-07-09T09:19:59;24.15;;;13.07;;
68250;SDS011;55066;51.560;4.642;2023-07-09T09:25:32;22.33;;;13.30;;
68250;SDS011;55066;51.560;4.642;2023-07-09T09:28:00;20.58;;;12.85;;
68250;SDS011;55066;51.560;4.642;2023-07-09T09:30:30;21.00;;;12.35;;
68250;SDS011;55066;51.560;4.642;2023-07-09T09:33:06;20.45;;;12.43;;
68250;SDS011;55066;51.560;4.642;2023-07-09T09:35:35;22.20;;;14.30;;
68250;SDS011;55066;51.560;4.642;2023-07-09T09:38:02;21.80;;;13.70;;
68250;SDS011;55066;51.560;4.642;2023-07-09T09:40:35;24.63;;;12.80;;
68250;SDS011;55066;51.560;4.642;2023-07-09T09:43:01;21.70;;;13.57;;
68250;SDS011;55066;51.560;4.642;2023-07-09T09:45:28;18.33;;;12.07;;
68250;SDS011;55066;51.560;4.642;2023-07-09T09:47:59;16.63;;;10.15;;
68250;SDS011;55066;51.560;4.642;2023-07-09T09:50:27;18.93;;;11.77;;
68250;SDS011;55066;51.560;4.642;2023-07-09T09:52:58;21.50;;;11.73;;
68250;SDS011;55066;51.560;4.642;2023-07-09T09:55:30;20.58;;;12.60;;
68250;SDS011;55066;51.560;4.642;2023-07-09T09:57:57;19.83;;;11.57;;
68250;SDS011;55066;51.560;4.642;2023-07-09T10:00:27;20.87;;;12.00;;
68250;SDS011;55066;51.560;4.642;2023-07-09T10:02:57;22.15;;;15.18;;
68250;SDS011;55066;51.560;4.642;2023-07-09T10:05:30;19.98;;;14.65;;
68250;SDS011;55066;51.560;4.642;2023-07-09T10:08:08;23.83;;;14.57;;
68250;SDS011;55066;51.560;4.642;2023-07-09T10:10:38;22.95;;;14.73;;
68250;SDS011;55066;51.560;4.642;2023-07-09T10:13:10;22.63;;;14.67;;
68250;SDS011;55066;51.560;4.642;2023-07-09T10:19:00;23.02;;;13.93;;
68250;SDS011;55066;51.560;4.642;2023-07-09T10:21:43;22.13;;;14.43;;
68250;SDS011;55066;51.560;4.642;2023-07-09T10:24:22;19.20;;;14.68;;
68250;SDS011;55066;51.560;4.642;2023-07-09T10:35:29;15.95;;;11.80;;
68250;SDS011;55066;51.560;4.642;2023-07-09T10:40:43;19.90;;;13.67;;
68250;SDS011;55066;51.560;4.642;2023-07-09T10:43:46;18.08;;;12.82;;
68250;SDS011;55066;51.560;4.642;2023-07-09T10:46:13;22.67;;;14.73;;
68250;SDS011;55066;51.560;4.642;2023-07-09T10:48:42;22.05;;;13.82;;
68250;SDS011;55066;51.560;4.642;2023-07-09T10:51:22;19.85;;;12.82;;
68250;SDS011;55066;51.560;4.642;2023-07-09T10:56:39;21.58;;;13.00;;
68250;SDS011;55066;51.560;4.642;2023-07-09T11:01:43;17.58;;;12.55;;
68250;SDS011;55066;51.560;4.642;2023-07-09T11:04:35;18.77;;;10.90;;
68250;SDS011;55066;51.560;4.642;2023-07-09T11:07:27;16.63;;;9.35;;
68250;SDS011;55066;51.560;4.642;2023-07-09T11:09:57;18.15;;;10.48;;
68250;SDS011;55066;51.560;4.642;2023-07-09T11:15:02;16.30;;;7.80;;
68250;SDS011;55066;51.560;4.642;2023-07-09T11:17:35;12.63;;;7.80;;
68250;SDS011;55066;51.560;4.642;2023-07-09T11:20:14;11.38;;;7.15;;
68250;SDS011;55066;51.560;4.642;2023-07-09T11:23:07;15.95;;;7.03;;
68250;SDS011;55066;51.560;4.642;2023-07-09T11:25:48;14.80;;;8.07;;
68250;SDS011;55066;51.560;4.642;2023-07-09T11:28:39;13.30;;;7.93;;
68250;SDS011;55066;51.560;4.642;2023-07-09T11:31:07;15.00;;;8.30;;
68250;SDS011;55066;51.560;4.642;2023-07-09T11:33:47;11.60;;;7.72;;
68250;SDS011;55066;51.560;4.642;2023-07-09T11:36:23;14.23;;;7.50;;
68250;SDS011;55066;51.560;4.642;2023-07-09T11:38:51;12.15;;;7.75;;
68250;SDS011;55066;51.560;4.642;2023-07-09T11:41:37;12.43;;;5.93;;
68250;SDS011;55066;51.560;4.642;2023-07-09T11:46:48;11.38;;;4.80;;
68250;SDS011;55066;51.560;4.642;2023-07-09T11:49:23;10.50;;;4.65;;
68250;SDS011;55066;51.560;4.642;2023-07-09T11:52:02;8.73;;;4.80;;
68250;SDS011;55066;51.560;4.642;2023-07-09T11:54:49;9.57;;;4.68;;
68250;SDS011;55066;51.560;4.642;2023-07-09T11:57:16;7.33;;;4.70;;
68250;SDS011;55066;51.560;4.642;2023-07-09T11:59:44;8.73;;;4.30;;
68250;SDS011;55066;51.560;4.642;2023-07-09T12:02:19;5.73;;;4.00;;
68250;SDS011;55066;51.560;4.642;2023-07-09T12:04:50;7.45;;;3.90;;
68250;SDS011;55066;51.560;4.642;2023-07-09T12:07:17;6.55;;;3.83;;
68250;SDS011;55066;51.560;4.642;2023-07-09T12:09:48;6.72;;;3.65;;
68250;SDS011;55066;51.560;4.642;2023-07-09T12:12:20;7.05;;;3.70;;
68250;SDS011;55066;51.560;4.642;2023-07-09T12:14:48;10.20;;;3.37;;
68250;SDS011;55066;51.560;4.642;2023-07-09T12:17:26;7.13;;;3.10;;
68250;SDS011;55066;51.560;4.642;2023-07-09T12:19:55;8.88;;;3.30;;
68250;SDS011;55066;51.560;4.642;2023-07-09T12:22:21;7.73;;;3.20;;
68250;SDS011;55066;51.560;4.642;2023-07-09T12:24:48;7.70;;;3.03;;
68250;SDS011;55066;51.560;4.642;2023-07-09T12:29:50;5.90;;;2.90;;
68250;SDS011;55066;51.560;4.642;2023-07-09T12:32:16;6.63;;;3.00;;
68250;SDS011;55066;51.560;4.642;2023-07-09T12:34:52;7.60;;;2.90;;
68250;SDS011;55066;51.560;4.642;2023-07-09T12:37:19;6.93;;;3.28;;
68250;SDS011;55066;51.560;4.642;2023-07-09T12:39:48;7.15;;;2.90;;
68250;SDS011;55066;51.560;4.642;2023-07-09T12:42:37;6.25;;;3.05;;
68250;SDS011;55066;51.560;4.642;2023-07-09T12:45:02;7.57;;;3.23;;
68250;SDS011;55066;51.560;4.642;2023-07-09T12:47:28;8.68;;;3.50;;
68250;SDS011;55066;51.560;4.642;2023-07-09T12:50:00;5.88;;;3.00;;
68250;SDS011;55066;51.560;4.642;2023-07-09T12:52:28;7.30;;;3.03;;
68250;SDS011;55066;51.560;4.642;2023-07-09T12:54:55;9.18;;;3.40;;
68250;SDS011;55066;51.560;4.642;2023-07-09T12:57:22;9.05;;;3.92;;
68250;SDS011;55066;51.560;4.642;2023-07-09T12:59:48;8.00;;;3.20;;
68250;SDS011;55066;51.560;4.642;2023-07-09T13:02:15;7.77;;;3.37;;
68250;SDS011;55066;51.560;4.642;2023-07-09T13:07:41;7.60;;;3.30;;
68250;SDS011;55066;51.560;4.642;2023-07-09T13:10:14;5.73;;;2.80;;
68250;SDS011;55066;51.560;4.642;2023-07-09T13:12:56;9.02;;;3.00;;
68250;SDS011;55066;51.560;4.642;2023-07-09T13:15:31;10.05;;;3.30;;
68250;SDS011;55066;51.560;4.642;2023-07-09T13:18:06;10.63;;;3.00;;
68250;SDS011;55066;51.560;4.642;2023-07-09T13:20:35;9.10;;;2.80;;
68250;SDS011;55066;51.560;4.642;2023-07-09T13:23:08;8.50;;;3.05;;
68250;SDS011;55066;51.560;4.642;2023-07-09T13:25:57;8.77;;;3.10;;
68250;SDS011;55066;51.560;4.642;2023-07-09T13:28:27;9.23;;;3.08;;
68250;SDS011;55066;51.560;4.642;2023-07-09T13:31:16;7.80;;;2.83;;
68250;SDS011;55066;51.560;4.642;2023-07-09T13:33:44;8.52;;;2.83;;
68250;SDS011;55066;51.560;4.642;2023-07-09T13:36:18;8.00;;;2.80;;
68250;SDS011;55066;51.560;4.642;2023-07-09T13:38:43;8.30;;;3.00;;
68250;SDS011;55066;51.560;4.642;2023-07-09T13:41:19;14.55;;;3.80;;
68250;SDS011;55066;51.560;4.642;2023-07-09T13:43:47;12.43;;;4.18;;
68250;SDS011;55066;51.560;4.642;2023-07-09T13:46:14;12.63;;;3.90;;
68250;SDS011;55066;51.560;4.642;2023-07-09T13:48:40;21.40;;;5.37;;
68250;SDS011;55066;51.560;4.642;2023-07-09T13:51:18;16.77;;;4.82;;
68250;SDS011;55066;51.560;4.642;2023-07-09T13:57:03;13.35;;;5.10;;
68250;SDS011;55066;51.560;4.642;2023-07-09T13:59:36;14.95;;;5.22;;
68250;SDS011;55066;51.560;4.642;2023-07-09T14:02:07;11.73;;;5.40;;
68250;SDS011;55066;51.560;4.642;2023-07-09T14:04:57;13.30;;;5.03;;
68250;SDS011;55066;51.560;4.642;2023-07-09T14:07:32;12.70;;;5.60;;
68250;SDS011;55066;51.560;4.642;2023-07-09T14:10:01;13.10;;;5.47;;
68250;SDS011;55066;51.560;4.642;2023-07-09T14:12:29;16.40;;;6.10;;
68250;SDS011;55066;51.560;4.642;2023-07-09T14:14:58;14.17;;;5.77;;
68250;SDS011;55066;51.560;4.642;2023-07-09T14:17:26;12.00;;;5.78;;
68250;SDS011;55066;51.560;4.642;2023-07-09T14:19:52;11.85;;;6.22;;
68250;SDS011;55066;51.560;4.642;2023-07-09T14:24:58;11.95;;;6.20;;
68250;SDS011;55066;51.560;4.642;2023-07-09T14:27:25;12.50;;;6.23;;
68250;SDS011;55066;51.560;4.642;2023-07-09T14:29:51;13.82;;;6.65;;
68250;SDS011;55066;51.560;4.642;2023-07-09T14:32:34;15.07;;;6.88;;
68250;SDS011;55066;51.560;4.642;2023-07-09T14:35:13;15.45;;;7.13;;
68250;SDS011;55066;51.560;4.642;2023-07-09T14:37:45;19.73;;;7.93;;
68250;SDS011;55066;51.560;4.642;2023-07-09T14:40:29;13.73;;;7.37;;
68250;SDS011;55066;51.560;4.642;2023-07-09T14:43:13;11.75;;;5.80;;
68250;SDS011;55066;51.560;4.642;2023-07-09T14:45:44;12.23;;;6.32;;
68250;SDS011;55066;51.560;4.642;2023-07-09T14:48:42;14.93;;;7.45;;
68250;SDS011;55066;51.560;4.642;2023-07-09T14:51:28;12.77;;;6.53;;
68250;SDS011;55066;51.560;4.642;2023-07-09T14:54:00;15.48;;;7.10;;
68250;SDS011;55066;51.560;4.642;2023-07-09T14:56:25;12.48;;;6.82;;
68250;SDS011;55066;51.560;4.642;2023-07-09T14:59:27;15.73;;;6.72;;
68250;SDS011;55066;51.560;4.642;2023-07-09T15:02:36;13.93;;;6.72;;
68250;SDS011;55066;51.560;4.642;2023-07-09T15:05:33;15.03;;;7.10;;
68250;SDS011;55066;51.560;4.642;2023-07-09T15:08:20;16.08;;;6.30;;
68250;SDS011;55066;51.560;4.642;2023-07-09T15:11:03;9.95;;;5.22;;
68250;SDS011;55066;51.560;4.642;2023-07-09T15:13:30;10.80;;;5.07;;
68250;SDS011;55066;51.560;4.642;2023-07-09T15:16:05;10.43;;;5.10;;
68250;SDS011;55066;51.560;4.642;2023-07-09T15:18:40;10.10;;;4.33;;
68250;SDS011;55066;51.560;4.642;2023-07-09T15:21:24;8.95;;;4.65;;
68250;SDS011;55066;51.560;4.642;2023-07-09T15:23:53;9.50;;;4.20;;
68250;SDS011;55066;51.560;4.642;2023-07-09T15:26:21;8.90;;;3.72;;
68250;SDS011;55066;51.560;4.642;2023-07-09T15:29:12;7.97;;;4.05;;
68250;SDS011;55066;51.560;4.642;2023-07-09T15:35:09;9.27;;;4.45;;